sensor_id;sensor_type;location;lat;lon;timestamp;temperature;humidity
78520;SHT31;67818;51.986;5.648;2023-09-19T00:00:48;16.0;81.1
78520;SHT31;67818;51.986;5.648;2023-09-19T00:03:20;16.0;81.7
78520;SHT31;67818;51.986;5.648;2023-09-19T00:05:51;16.0;81.8
78520;SHT31;67818;51.986;5.648;2023-09-19T00:08:22;16.0;82.0
78520;SHT31;67818;51.986;5.648;2023-09-19T00:10:51;16.0;82.0
78520;SHT31;67818;51.986;5.648;2023-09-19T00:13:21;16.0;82.2
78520;SHT31;67818;51.986;5.648;2023-09-19T00:15:52;16.0;82.0
78520;SHT31;67818;51.986;5.648;2023-09-19T00:18:22;16.0;82.1
78520;SHT31;67818;51.986;5.648;2023-09-19T00:20:57;16.0;81.9
78520;SHT31;67818;51.986;5.648;2023-09-19T00:23:30;16.1;82.2
78520;SHT31;67818;51.986;5.648;2023-09-19T00:26:01;16.1;82.3
78520;SHT31;67818;51.986;5.648;2023-09-19T00:28:30;16.1;82.3
78520;SHT31;67818;51.986;5.648;2023-09-19T00:30:59;16.1;82.2
78520;SHT31;67818;51.986;5.648;2023-09-19T00:33:29;16.1;82.3
78520;SHT31;67818;51.986;5.648;2023-09-19T00:35:58;16.2;82.6
78520;SHT31;67818;51.986;5.648;2023-09-19T00:38:28;16.2;82.2
78520;SHT31;67818;51.986;5.648;2023-09-19T00:40:58;16.2;81.9
78520;SHT31;67818;51.986;5.648;2023-09-19T00:43:27;16.2;82.2
78520;SHT31;67818;51.986;5.648;2023-09-19T00:46:01;16.3;82.3
78520;SHT31;67818;51.986;5.648;2023-09-19T00:48:40;16.3;82.3
78520;SHT31;67818;51.986;5.648;2023-09-19T00:51:11;16.3;82.7
78520;SHT31;67818;51.986;5.648;2023-09-19T00:53:41;16.4;82.1
78520;SHT31;67818;51.986;5.648;2023-09-19T00:56:15;16.4;82.4
78520;SHT31;67818;51.986;5.648;2023-09-19T00:58:46;16.4;82.3
78520;SHT31;67818;51.986;5.648;2023-09-19T01:01:16;16.5;82.0
78520;SHT31;67818;51.986;5.648;2023-09-19T01:03:46;16.5;81.2
78520;SHT31;67818;51.986;5.648;2023-09-19T01:06:16;16.5;81.2
78520;SHT31;67818;51.986;5.648;2023-09-19T01:08:46;16.5;80.9
78520;SHT31;67818;51.986;5.648;2023-09-19T01:11:25;16.5;80.8
78520;SHT31;67818;51.986;5.648;2023-09-19T01:14:06;16.6;81.3
78520;SHT31;67818;51.986;5.648;2023-09-19T01:16:45;16.6;81.1
78520;SHT31;67818;51.986;5.648;2023-09-19T01:19:59;16.6;80.5
78520;SHT31;67818;51.986;5.648;2023-09-19T01:22:41;16.6;80.2
78520;SHT31;67818;51.986;5.648;2023-09-19T01:25:49;16.6;81.0
78520;SHT31;67818;51.986;5.648;2023-09-19T01:28:31;16.6;80.2
78520;SHT31;67818;51.986;5.648;2023-09-19T01:31:09;16.6;79.6
78520;SHT31;67818;51.986;5.648;2023-09-19T01:33:57;16.6;79.4
78520;SHT31;67818;51.986;5.648;2023-09-19T01:36:32;16.7;78.1
78520;SHT31;67818;51.986;5.648;2023-09-19T01:39:04;16.7;78.2
78520;SHT31;67818;51.986;5.648;2023-09-19T01:42:05;16.7;77.6
78520;SHT31;67818;51.986;5.648;2023-09-19T01:44:51;16.6;77.6
78520;SHT31;67818;51.986;5.648;2023-09-19T01:47:32;16.6;77.0
78520;SHT31;67818;51.986;5.648;2023-09-19T01:50:13;16.6;77.0
78520;SHT31;67818;51.986;5.648;2023-09-19T01:52:48;16.6;76.7
78520;SHT31;67818;51.986;5.648;2023-09-19T01:55:19;16.6;76.2
78520;SHT31;67818;51.986;5.648;2023-09-19T01:57:58;16.5;75.8
78520;SHT31;67818;51.986;5.648;2023-09-19T02:00:34;16.5;76.3
78520;SHT31;67818;51.986;5.648;2023-09-19T02:03:06;16.4;76.3
78520;SHT31;67818;51.986;5.648;2023-09-19T02:05:40;16.4;76.8
78520;SHT31;67818;51.986;5.648;2023-09-19T02:08:25;16.3;76.5
78520;SHT31;67818;51.986;5.648;2023-09-19T02:11:03;16.2;76.7
78520;SHT31;67818;51.986;5.648;2023-09-19T02:13:33;16.2;76.4
78520;SHT31;67818;51.986;5.648;2023-09-19T02:16:02;16.1;76.1
78520;SHT31;67818;51.986;5.648;2023-09-19T02:18:31;16.1;76.3
78520;SHT31;67818;51.986;5.648;2023-09-19T02:21:04;16.0;76.5
78520;SHT31;67818;51.986;5.648;2023-09-19T02:23:33;16.0;76.9
78520;SHT31;67818;51.986;5.648;2023-09-19T02:26:03;15.9;76.9
78520;SHT31;67818;51.986;5.648;2023-09-19T02:28:33;15.9;77.0
78520;SHT31;67818;51.986;5.648;2023-09-19T02:31:04;15.9;76.0
78520;SHT31;67818;51.986;5.648;2023-09-19T02:33:34;15.8;75.8
78520;SHT31;67818;51.986;5.648;2023-09-19T02:36:06;15.8;75.9
78520;SHT31;67818;51.986;5.648;2023-09-19T02:38:40;15.7;76.3
78520;SHT31;67818;51.986;5.648;2023-09-19T02:41:08;15.7;75.9
78520;SHT31;67818;51.986;5.648;2023-09-19T02:43:37;15.6;75.8
78520;SHT31;67818;51.986;5.648;2023-09-19T02:46:06;15.6;75.4
78520;SHT31;67818;51.986;5.648;2023-09-19T02:48:35;15.6;75.6
78520;SHT31;67818;51.986;5.648;2023-09-19T02:51:05;15.5;75.6
78520;SHT31;67818;51.986;5.648;2023-09-19T02:53:34;15.5;75.0
78520;SHT31;67818;51.986;5.648;2023-09-19T02:56:07;15.4;75.2
78520;SHT31;67818;51.986;5.648;2023-09-19T02:58:40;15.4;75.9
78520;SHT31;67818;51.986;5.648;2023-09-19T03:01:13;15.4;75.7
78520;SHT31;67818;51.986;5.648;2023-09-19T03:03:42;15.3;75.9
78520;SHT31;67818;51.986;5.648;2023-09-19T03:06:11;15.3;75.9
78520;SHT31;67818;51.986;5.648;2023-09-19T03:08:43;15.3;74.6
78520;SHT31;67818;51.986;5.648;2023-09-19T03:11:15;15.2;75.7
78520;SHT31;67818;51.986;5.648;2023-09-19T03:13:50;15.2;75.5
78520;SHT31;67818;51.986;5.648;2023-09-19T03:16:20;15.2;75.4
78520;SHT31;67818;51.986;5.648;2023-09-19T03:18:51;15.1;75.5
78520;SHT31;67818;51.986;5.648;2023-09-19T03:21:23;15.1;75.3
78520;SHT31;67818;51.986;5.648;2023-09-19T03:23:53;15.1;75.7
78520;SHT31;67818;51.986;5.648;2023-09-19T03:26:25;15.0;74.2
78520;SHT31;67818;51.986;5.648;2023-09-19T03:28:54;15.0;74.4
78520;SHT31;67818;51.986;5.648;2023-09-19T03:31:23;15.0;74.5
78520;SHT31;67818;51.986;5.648;2023-09-19T03:33:53;15.0;74.3
78520;SHT31;67818;51.986;5.648;2023-09-19T03:36:23;14.9;74.0
78520;SHT31;67818;51.986;5.648;2023-09-19T03:38:58;14.9;74.1
78520;SHT31;67818;51.986;5.648;2023-09-19T03:41:32;14.9;74.2
78520;SHT31;67818;51.986;5.648;2023-09-19T03:44:03;14.9;74.1
78520;SHT31;67818;51.986;5.648;2023-09-19T03:46:33;14.9;75.2
78520;SHT31;67818;51.986;5.648;2023-09-19T03:49:03;14.9;74.2
78520;SHT31;67818;51.986;5.648;2023-09-19T03:51:35;14.9;74.2
78520;SHT31;67818;51.986;5.648;2023-09-19T03:54:06;14.9;75.1
78520;SHT31;67818;51.986;5.648;2023-09-19T03:56:35;14.9;74.6
78520;SHT31;67818;51.986;5.648;2023-09-19T03:59:04;14.8;73.8
78520;SHT31;67818;51.986;5.648;2023-09-19T04:01:35;14.8;73.8
78520;SHT31;67818;51.986;5.648;2023-09-19T04:04:04;14.8;74.0
78520;SHT31;67818;51.986;5.648;2023-09-19T04:06:36;14.8;74.4
78520;SHT31;67818;51.986;5.648;2023-09-19T04:09:06;14.8;73.9
78520;SHT31;67818;51.986;5.648;2023-09-19T04:11:35;14.8;73.7
78520;SHT31;67818;51.986;5.648;2023-09-19T04:14:05;14.8;73.1
78520;SHT31;67818;51.986;5.648;2023-09-19T04:16:34;14.8;73.7
78520;SHT31;67818;51.986;5.648;2023-09-19T04:19:03;14.8;73.8
78520;SHT31;67818;51.986;5.648;2023-09-19T04:21:33;14.8;74.0
78520;SHT31;67818;51.986;5.648;2023-09-19T04:24:02;14.8;72.8
78520;SHT31;67818;51.986;5.648;2023-09-19T04:26:31;14.8;73.7
78520;SHT31;67818;51.986;5.648;2023-09-19T04:29:00;14.8;73.6
78520;SHT31;67818;51.986;5.648;2023-09-19T04:31:30;14.8;73.5
78520;SHT31;67818;51.986;5.648;2023-09-19T04:33:59;14.8;73.9
78520;SHT31;67818;51.986;5.648;2023-09-19T04:36:31;14.8;73.2
78520;SHT31;67818;51.986;5.648;2023-09-19T04:39:01;14.8;73.4
78520;SHT31;67818;51.986;5.648;2023-09-19T04:41:32;14.8;73.3
78520;SHT31;67818;51.986;5.648;2023-09-19T04:44:00;14.8;73.7
78520;SHT31;67818;51.986;5.648;2023-09-19T04:46:30;14.8;73.7
78520;SHT31;67818;51.986;5.648;2023-09-19T04:48:59;14.8;73.9
78520;SHT31;67818;51.986;5.648;2023-09-19T04:51:28;14.8;73.3
78520;SHT31;67818;51.986;5.648;2023-09-19T04:54:01;14.8;73.3
78520;SHT31;67818;51.986;5.648;2023-09-19T04:56:30;14.8;74.1
78520;SHT31;67818;51.986;5.648;2023-09-19T04:59:00;14.8;73.6
78520;SHT31;67818;51.986;5.648;2023-09-19T05:01:29;14.8;73.9
78520;SHT31;67818;51.986;5.648;2023-09-19T05:03:57;14.8;73.7
78520;SHT31;67818;51.986;5.648;2023-09-19T05:06:26;14.8;74.2
78520;SHT31;67818;51.986;5.648;2023-09-19T05:08:55;14.8;74.3
78520;SHT31;67818;51.986;5.648;2023-09-19T05:11:24;14.8;73.4
78520;SHT31;67818;51.986;5.648;2023-09-19T05:13:53;14.8;73.3
78520;SHT31;67818;51.986;5.648;2023-09-19T05:16:22;14.8;73.5
78520;SHT31;67818;51.986;5.648;2023-09-19T05:18:52;14.9;74.1
78520;SHT31;67818;51.986;5.648;2023-09-19T05:21:21;14.9;73.9
78520;SHT31;67818;51.986;5.648;2023-09-19T05:23:54;14.9;73.7
78520;SHT31;67818;51.986;5.648;2023-09-19T05:26:24;14.9;73.6
78520;SHT31;67818;51.986;5.648;2023-09-19T05:28:54;14.9;73.5
78520;SHT31;67818;51.986;5.648;2023-09-19T05:31:23;14.9;73.2
78520;SHT31;67818;51.986;5.648;2023-09-19T05:33:53;14.9;72.9
78520;SHT31;67818;51.986;5.648;2023-09-19T05:36:22;15.0;73.9
78520;SHT31;67818;51.986;5.648;2023-09-19T05:38:53;15.0;74.3
78520;SHT31;67818;51.986;5.648;2023-09-19T05:41:22;15.0;73.8
78520;SHT31;67818;51.986;5.648;2023-09-19T05:43:51;15.0;74.5
78520;SHT31;67818;51.986;5.648;2023-09-19T05:46:20;15.1;74.4
78520;SHT31;67818;51.986;5.648;2023-09-19T05:48:49;15.1;74.9
78520;SHT31;67818;51.986;5.648;2023-09-19T05:51:17;15.1;74.2
78520;SHT31;67818;51.986;5.648;2023-09-19T05:53:49;15.1;74.3
78520;SHT31;67818;51.986;5.648;2023-09-19T05:56:20;15.2;74.0
78520;SHT31;67818;51.986;5.648;2023-09-19T05:58:49;15.2;74.1
78520;SHT31;67818;51.986;5.648;2023-09-19T06:01:18;15.2;74.1
78520;SHT31;67818;51.986;5.648;2023-09-19T06:03:47;15.2;74.7
78520;SHT31;67818;51.986;5.648;2023-09-19T06:06:15;15.2;74.5
78520;SHT31;67818;51.986;5.648;2023-09-19T06:08:43;15.2;74.7
78520;SHT31;67818;51.986;5.648;2023-09-19T06:11:12;15.2;74.7
78520;SHT31;67818;51.986;5.648;2023-09-19T06:13:41;15.2;75.1
78520;SHT31;67818;51.986;5.648;2023-09-19T06:16:09;15.3;75.0
78520;SHT31;67818;51.986;5.648;2023-09-19T06:18:38;15.3;75.2
78520;SHT31;67818;51.986;5.648;2023-09-19T06:21:06;15.3;75.2
78520;SHT31;67818;51.986;5.648;2023-09-19T06:23:35;15.3;75.1
78520;SHT31;67818;51.986;5.648;2023-09-19T06:26:04;15.3;75.6
78520;SHT31;67818;51.986;5.648;2023-09-19T06:28:34;15.4;75.5
78520;SHT31;67818;51.986;5.648;2023-09-19T06:31:06;15.4;74.9
78520;SHT31;67818;51.986;5.648;2023-09-19T06:33:37;15.4;74.8
78520;SHT31;67818;51.986;5.648;2023-09-19T06:36:07;15.5;75.5
78520;SHT31;67818;51.986;5.648;2023-09-19T06:38:36;15.5;75.3
78520;SHT31;67818;51.986;5.648;2023-09-19T06:41:08;15.5;75.3
78520;SHT31;67818;51.986;5.648;2023-09-19T06:43:38;15.6;75.9
78520;SHT31;67818;51.986;5.648;2023-09-19T06:46:09;15.6;75.6
78520;SHT31;67818;51.986;5.648;2023-09-19T06:48:39;15.6;75.9
78520;SHT31;67818;51.986;5.648;2023-09-19T06:51:10;15.7;75.8
78520;SHT31;67818;51.986;5.648;2023-09-19T06:53:44;15.7;75.4
78520;SHT31;67818;51.986;5.648;2023-09-19T06:56:12;15.7;75.4
78520;SHT31;67818;51.986;5.648;2023-09-19T06:58:40;15.8;75.1
78520;SHT31;67818;51.986;5.648;2023-09-19T07:01:10;15.8;75.5
78520;SHT31;67818;51.986;5.648;2023-09-19T07:03:41;15.9;74.9
78520;SHT31;67818;51.986;5.648;2023-09-19T07:06:13;15.9;75.2
78520;SHT31;67818;51.986;5.648;2023-09-19T07:08:42;15.9;74.8
78520;SHT31;67818;51.986;5.648;2023-09-19T07:11:11;16.0;74.6
78520;SHT31;67818;51.986;5.648;2023-09-19T07:13:42;16.0;74.3
78520;SHT31;67818;51.986;5.648;2023-09-19T07:16:11;16.0;74.1
78520;SHT31;67818;51.986;5.648;2023-09-19T07:18:45;16.1;75.3
78520;SHT31;67818;51.986;5.648;2023-09-19T07:21:13;16.1;75.0
78520;SHT31;67818;51.986;5.648;2023-09-19T07:23:44;16.2;74.3
78520;SHT31;67818;51.986;5.648;2023-09-19T07:26:13;16.2;74.7
78520;SHT31;67818;51.986;5.648;2023-09-19T07:28:41;16.3;74.2
78520;SHT31;67818;51.986;5.648;2023-09-19T07:31:10;16.3;73.8
78520;SHT31;67818;51.986;5.648;2023-09-19T07:33:40;16.4;74.2
78520;SHT31;67818;51.986;5.648;2023-09-19T07:36:13;16.4;74.4
78520;SHT31;67818;51.986;5.648;2023-09-19T07:38:42;16.5;74.3
78520;SHT31;67818;51.986;5.648;2023-09-19T07:41:11;16.5;73.7
78520;SHT31;67818;51.986;5.648;2023-09-19T07:43:42;16.6;73.7
78520;SHT31;67818;51.986;5.648;2023-09-19T07:46:10;16.6;73.6
78520;SHT31;67818;51.986;5.648;2023-09-19T07:48:39;16.7;73.7
78520;SHT31;67818;51.986;5.648;2023-09-19T07:51:10;16.7;73.6
78520;SHT31;67818;51.986;5.648;2023-09-19T07:53:44;16.8;73.2
78520;SHT31;67818;51.986;5.648;2023-09-19T07:56:14;16.8;73.3
78520;SHT31;67818;51.986;5.648;2023-09-19T07:58:48;16.9;73.1
78520;SHT31;67818;51.986;5.648;2023-09-19T08:01:18;16.9;72.6
78520;SHT31;67818;51.986;5.648;2023-09-19T08:03:50;17.0;72.8
78520;SHT31;67818;51.986;5.648;2023-09-19T08:06:18;17.1;72.8
78520;SHT31;67818;51.986;5.648;2023-09-19T08:08:50;17.1;72.6
78520;SHT31;67818;51.986;5.648;2023-09-19T08:11:20;17.2;72.0
78520;SHT31;67818;51.986;5.648;2023-09-19T08:13:52;17.2;71.7
78520;SHT31;67818;51.986;5.648;2023-09-19T08:16:21;17.3;71.9
78520;SHT31;67818;51.986;5.648;2023-09-19T08:18:51;17.3;71.6
78520;SHT31;67818;51.986;5.648;2023-09-19T08:21:22;17.4;72.0
78520;SHT31;67818;51.986;5.648;2023-09-19T08:23:52;17.4;72.3
78520;SHT31;67818;51.986;5.648;2023-09-19T08:26:21;17.5;72.4
78520;SHT31;67818;51.986;5.648;2023-09-19T08:28:50;17.6;71.0
78520;SHT31;67818;51.986;5.648;2023-09-19T08:31:22;17.7;70.6
78520;SHT31;67818;51.986;5.648;2023-09-19T08:33:52;17.7;71.3
78520;SHT31;67818;51.986;5.648;2023-09-19T08:36:22;17.8;70.5
78520;SHT31;67818;51.986;5.648;2023-09-19T08:38:51;17.8;71.7
78520;SHT31;67818;51.986;5.648;2023-09-19T08:41:19;17.9;71.3
78520;SHT31;67818;51.986;5.648;2023-09-19T08:43:48;18.0;70.2
78520;SHT31;67818;51.986;5.648;2023-09-19T08:46:20;18.0;69.3
78520;SHT31;67818;51.986;5.648;2023-09-19T08:49:01;18.1;69.4
78520;SHT31;67818;51.986;5.648;2023-09-19T08:51:42;18.1;69.8
78520;SHT31;67818;51.986;5.648;2023-09-19T08:54:17;18.2;69.2
78520;SHT31;67818;51.986;5.648;2023-09-19T08:56:47;18.2;68.8
78520;SHT31;67818;51.986;5.648;2023-09-19T08:59:21;18.2;68.2
78520;SHT31;67818;51.986;5.648;2023-09-19T09:01:53;18.2;69.4
78520;SHT31;67818;51.986;5.648;2023-09-19T09:04:22;18.3;68.5
78520;SHT31;67818;51.986;5.648;2023-09-19T09:06:54;18.3;69.2
78520;SHT31;67818;51.986;5.648;2023-09-19T09:09:25;18.3;68.7
78520;SHT31;67818;51.986;5.648;2023-09-19T09:11:54;18.3;68.3
78520;SHT31;67818;51.986;5.648;2023-09-19T09:14:24;18.3;68.0
78520;SHT31;67818;51.986;5.648;2023-09-19T09:16:52;18.4;66.8
78520;SHT31;67818;51.986;5.648;2023-09-19T09:19:27;18.4;67.4
78520;SHT31;67818;51.986;5.648;2023-09-19T09:22:07;18.4;66.8
78520;SHT31;67818;51.986;5.648;2023-09-19T09:24:36;18.5;66.7
78520;SHT31;67818;51.986;5.648;2023-09-19T09:27:07;18.5;66.3
78520;SHT31;67818;51.986;5.648;2023-09-19T09:29:44;18.6;65.9
78520;SHT31;67818;51.986;5.648;2023-09-19T09:32:21;18.7;66.0
78520;SHT31;67818;51.986;5.648;2023-09-19T09:34:53;18.8;66.2
78520;SHT31;67818;51.986;5.648;2023-09-19T09:37:23;18.8;65.1
78520;SHT31;67818;51.986;5.648;2023-09-19T09:39:56;18.9;64.7
78520;SHT31;67818;51.986;5.648;2023-09-19T09:42:32;18.9;64.5
78520;SHT31;67818;51.986;5.648;2023-09-19T09:45:15;19.0;65.4
78520;SHT31;67818;51.986;5.648;2023-09-19T09:47:48;19.0;63.4
78520;SHT31;67818;51.986;5.648;2023-09-19T09:50:27;19.0;63.8
78520;SHT31;67818;51.986;5.648;2023-09-19T09:53:03;19.0;64.9
78520;SHT31;67818;51.986;5.648;2023-09-19T09:55:58;19.0;64.1
78520;SHT31;67818;51.986;5.648;2023-09-19T09:58:29;19.0;64.5
78520;SHT31;67818;51.986;5.648;2023-09-19T10:00:59;19.0;64.8
78520;SHT31;67818;51.986;5.648;2023-09-19T10:03:35;19.0;65.4
78520;SHT31;67818;51.986;5.648;2023-09-19T10:06:07;19.0;64.9
78520;SHT31;67818;51.986;5.648;2023-09-19T10:09:02;19.1;66.0
78520;SHT31;67818;51.986;5.648;2023-09-19T10:11:40;19.1;65.6
78520;SHT31;67818;51.986;5.648;2023-09-19T10:14:11;19.2;64.8
78520;SHT31;67818;51.986;5.648;2023-09-19T10:16:46;19.3;65.0
78520;SHT31;67818;51.986;5.648;2023-09-19T10:19:21;19.4;64.0
78520;SHT31;67818;51.986;5.648;2023-09-19T10:21:54;19.5;63.6
78520;SHT31;67818;51.986;5.648;2023-09-19T10:24:27;19.6;63.3
78520;SHT31;67818;51.986;5.648;2023-09-19T10:26:59;19.7;64.1
78520;SHT31;67818;51.986;5.648;2023-09-19T10:29:32;19.8;63.4
78520;SHT31;67818;51.986;5.648;2023-09-19T10:32:05;19.9;62.8
78520;SHT31;67818;51.986;5.648;2023-09-19T10:34:37;19.9;63.0
78520;SHT31;67818;51.986;5.648;2023-09-19T10:37:14;20.0;63.2
78520;SHT31;67818;51.986;5.648;2023-09-19T10:39:47;20.1;62.6
78520;SHT31;67818;51.986;5.648;2023-09-19T10:42:20;20.3;61.7
78520;SHT31;67818;51.986;5.648;2023-09-19T10:44:52;20.4;61.8
78520;SHT31;67818;51.986;5.648;2023-09-19T10:47:22;20.4;62.4
78520;SHT31;67818;51.986;5.648;2023-09-19T10:49:50;20.5;61.9
78520;SHT31;67818;51.986;5.648;2023-09-19T10:52:23;20.5;59.4
78520;SHT31;67818;51.986;5.648;2023-09-19T10:54:56;20.5;59.9
78520;SHT31;67818;51.986;5.648;2023-09-19T10:57:28;20.6;60.3
78520;SHT31;67818;51.986;5.648;2023-09-19T11:00:06;20.6;61.5
78520;SHT31;67818;51.986;5.648;2023-09-19T11:03:18;20.7;60.4
78520;SHT31;67818;51.986;5.648;2023-09-19T11:06:04;20.7;60.8
78520;SHT31;67818;51.986;5.648;2023-09-19T11:08:59;20.8;60.5
78520;SHT31;67818;51.986;5.648;2023-09-19T11:13:29;21.0;59.6
78520;SHT31;67818;51.986;5.648;2023-09-19T11:16:07;21.0;59.5
78520;SHT31;67818;51.986;5.648;2023-09-19T11:20:28;21.1;59.2
78520;SHT31;67818;51.986;5.648;2023-09-19T11:23:20;21.1;59.2
78520;SHT31;67818;51.986;5.648;2023-09-19T11:25:57;21.2;57.6
78520;SHT31;67818;51.986;5.648;2023-09-19T11:28:30;21.2;59.2
78520;SHT31;67818;51.986;5.648;2023-09-19T11:34:23;21.3;57.4
78520;SHT31;67818;51.986;5.648;2023-09-19T11:36:57;21.3;58.5
78520;SHT31;67818;51.986;5.648;2023-09-19T11:39:27;21.3;57.7
78520;SHT31;67818;51.986;5.648;2023-09-19T11:41:56;21.3;57.8
78520;SHT31;67818;51.986;5.648;2023-09-19T11:44:36;21.3;58.7
78520;SHT31;67818;51.986;5.648;2023-09-19T11:47:10;21.4;57.7
78520;SHT31;67818;51.986;5.648;2023-09-19T11:49:43;21.4;58.9
78520;SHT31;67818;51.986;5.648;2023-09-19T11:52:23;21.5;58.5
78520;SHT31;67818;51.986;5.648;2023-09-19T11:54:56;21.6;59.2
78520;SHT31;67818;51.986;5.648;2023-09-19T11:57:27;21.7;55.6
78520;SHT31;67818;51.986;5.648;2023-09-19T11:59:57;21.7;56.4
78520;SHT31;67818;51.986;5.648;2023-09-19T12:02:39;21.7;56.7
78520;SHT31;67818;51.986;5.648;2023-09-19T12:05:11;21.8;56.5
78520;SHT31;67818;51.986;5.648;2023-09-19T12:07:45;21.8;56.8
78520;SHT31;67818;51.986;5.648;2023-09-19T12:10:15;21.8;56.4
78520;SHT31;67818;51.986;5.648;2023-09-19T12:12:49;21.9;54.4
78520;SHT31;67818;51.986;5.648;2023-09-19T12:15:25;21.9;54.6
78520;SHT31;67818;51.986;5.648;2023-09-19T12:17:55;22.0;55.1
78520;SHT31;67818;51.986;5.648;2023-09-19T12:20:23;22.0;54.7
78520;SHT31;67818;51.986;5.648;2023-09-19T12:22:52;22.0;54.1
78520;SHT31;67818;51.986;5.648;2023-09-19T12:25:21;22.0;55.0
78520;SHT31;67818;51.986;5.648;2023-09-19T12:27:51;21.9;53.6
78520;SHT31;67818;51.986;5.648;2023-09-19T12:30:28;21.8;54.1
78520;SHT31;67818;51.986;5.648;2023-09-19T12:33:00;21.7;53.8
78520;SHT31;67818;51.986;5.648;2023-09-19T12:35:31;21.6;53.9
78520;SHT31;67818;51.986;5.648;2023-09-19T12:38:01;21.4;54.8
78520;SHT31;67818;51.986;5.648;2023-09-19T12:40:32;21.3;56.1
78520;SHT31;67818;51.986;5.648;2023-09-19T12:43:05;21.3;56.0
78520;SHT31;67818;51.986;5.648;2023-09-19T12:45:36;21.2;56.3
78520;SHT31;67818;51.986;5.648;2023-09-19T12:48:23;21.2;56.3
78520;SHT31;67818;51.986;5.648;2023-09-19T12:51:05;21.2;56.3
78520;SHT31;67818;51.986;5.648;2023-09-19T12:53:41;21.2;56.7
78520;SHT31;67818;51.986;5.648;2023-09-19T12:56:18;21.2;57.0
78520;SHT31;67818;51.986;5.648;2023-09-19T12:58:51;21.2;57.3
78520;SHT31;67818;51.986;5.648;2023-09-19T13:01:24;21.3;57.2
78520;SHT31;67818;51.986;5.648;2023-09-19T13:04:14;21.3;57.1
78520;SHT31;67818;51.986;5.648;2023-09-19T13:06:45;21.3;57.2
78520;SHT31;67818;51.986;5.648;2023-09-19T13:09:19;21.3;57.1
78520;SHT31;67818;51.986;5.648;2023-09-19T13:11:49;21.3;57.4
78520;SHT31;67818;51.986;5.648;2023-09-19T13:14:24;21.3;56.7
78520;SHT31;67818;51.986;5.648;2023-09-19T13:16:57;21.2;57.1
78520;SHT31;67818;51.986;5.648;2023-09-19T13:19:41;21.2;57.5
78520;SHT31;67818;51.986;5.648;2023-09-19T13:24:22;21.1;57.2
78520;SHT31;67818;51.986;5.648;2023-09-19T13:26:54;21.0;58.0
78520;SHT31;67818;51.986;5.648;2023-09-19T13:29:23;20.9;57.7
78520;SHT31;67818;51.986;5.648;2023-09-19T13:31:53;20.8;58.0
78520;SHT31;67818;51.986;5.648;2023-09-19T13:34:22;20.8;58.5
78520;SHT31;67818;51.986;5.648;2023-09-19T13:36:51;20.8;59.5
78520;SHT31;67818;51.986;5.648;2023-09-19T13:39:20;20.7;59.7
78520;SHT31;67818;51.986;5.648;2023-09-19T13:41:51;20.7;59.6
78520;SHT31;67818;51.986;5.648;2023-09-19T13:44:19;20.7;60.2
78520;SHT31;67818;51.986;5.648;2023-09-19T13:46:48;20.7;59.7
78520;SHT31;67818;51.986;5.648;2023-09-19T13:49:17;20.7;59.2
78520;SHT31;67818;51.986;5.648;2023-09-19T13:51:46;20.7;59.6
78520;SHT31;67818;51.986;5.648;2023-09-19T13:54:16;20.7;60.4
78520;SHT31;67818;51.986;5.648;2023-09-19T13:56:47;20.7;60.4
78520;SHT31;67818;51.986;5.648;2023-09-19T13:59:15;20.7;59.7
78520;SHT31;67818;51.986;5.648;2023-09-19T14:01:44;20.8;59.9
78520;SHT31;67818;51.986;5.648;2023-09-19T14:04:12;20.8;59.4
78520;SHT31;67818;51.986;5.648;2023-09-19T14:06:43;20.9;59.8
78520;SHT31;67818;51.986;5.648;2023-09-19T14:09:12;21.0;59.6
78520;SHT31;67818;51.986;5.648;2023-09-19T14:11:46;21.1;60.7
78520;SHT31;67818;51.986;5.648;2023-09-19T14:14:15;21.1;60.7
78520;SHT31;67818;51.986;5.648;2023-09-19T14:16:44;21.2;61.1
78520;SHT31;67818;51.986;5.648;2023-09-19T14:19:12;21.3;58.6
78520;SHT31;67818;51.986;5.648;2023-09-19T14:21:42;21.3;57.8
78520;SHT31;67818;51.986;5.648;2023-09-19T14:24:18;21.4;57.3
78520;SHT31;67818;51.986;5.648;2023-09-19T14:26:47;21.4;57.4
78520;SHT31;67818;51.986;5.648;2023-09-19T14:29:16;21.4;58.4
78520;SHT31;67818;51.986;5.648;2023-09-19T14:31:46;21.3;57.9
78520;SHT31;67818;51.986;5.648;2023-09-19T14:34:14;21.3;57.9
78520;SHT31;67818;51.986;5.648;2023-09-19T14:36:43;21.2;58.2
78520;SHT31;67818;51.986;5.648;2023-09-19T14:39:12;21.2;57.1
78520;SHT31;67818;51.986;5.648;2023-09-19T14:41:40;21.1;58.4
78520;SHT31;67818;51.986;5.648;2023-09-19T14:44:10;21.1;58.9
78520;SHT31;67818;51.986;5.648;2023-09-19T14:46:42;21.1;59.1
78520;SHT31;67818;51.986;5.648;2023-09-19T14:49:11;21.0;59.0
78520;SHT31;67818;51.986;5.648;2023-09-19T14:51:42;21.0;59.1
78520;SHT31;67818;51.986;5.648;2023-09-19T14:54:14;21.0;58.7
78520;SHT31;67818;51.986;5.648;2023-09-19T14:56:43;20.9;59.2
78520;SHT31;67818;51.986;5.648;2023-09-19T14:59:12;20.9;59.5
78520;SHT31;67818;51.986;5.648;2023-09-19T15:01:42;20.9;59.8
78520;SHT31;67818;51.986;5.648;2023-09-19T15:04:10;20.8;59.4
78520;SHT31;67818;51.986;5.648;2023-09-19T15:06:41;20.8;59.5
78520;SHT31;67818;51.986;5.648;2023-09-19T15:09:09;20.8;59.6
78520;SHT31;67818;51.986;5.648;2023-09-19T15:11:37;20.7;59.7
78520;SHT31;67818;51.986;5.648;2023-09-19T15:14:06;20.7;60.6
78520;SHT31;67818;51.986;5.648;2023-09-19T15:16:34;20.7;60.8
78520;SHT31;67818;51.986;5.648;2023-09-19T15:19:03;20.7;60.8
78520;SHT31;67818;51.986;5.648;2023-09-19T15:21:33;20.6;60.4
78520;SHT31;67818;51.986;5.648;2023-09-19T15:24:02;20.6;59.9
78520;SHT31;67818;51.986;5.648;2023-09-19T15:26:33;20.6;60.4
78520;SHT31;67818;51.986;5.648;2023-09-19T15:29:05;20.6;60.7
78520;SHT31;67818;51.986;5.648;2023-09-19T15:31:36;20.5;60.4
78520;SHT31;67818;51.986;5.648;2023-09-19T15:34:05;20.5;61.2
78520;SHT31;67818;51.986;5.648;2023-09-19T15:36:34;20.5;60.6
78520;SHT31;67818;51.986;5.648;2023-09-19T15:39:04;20.5;60.7
78520;SHT31;67818;51.986;5.648;2023-09-19T15:41:37;20.4;61.2
78520;SHT31;67818;51.986;5.648;2023-09-19T15:44:14;20.4;60.7
78520;SHT31;67818;51.986;5.648;2023-09-19T15:46:44;20.4;61.3
78520;SHT31;67818;51.986;5.648;2023-09-19T15:49:14;20.4;60.3
78520;SHT31;67818;51.986;5.648;2023-09-19T15:51:43;20.4;61.4
78520;SHT31;67818;51.986;5.648;2023-09-19T15:54:13;20.3;61.0
78520;SHT31;67818;51.986;5.648;2023-09-19T15:56:43;20.3;61.3
78520;SHT31;67818;51.986;5.648;2023-09-19T15:59:14;20.3;61.3
78520;SHT31;67818;51.986;5.648;2023-09-19T16:01:44;20.3;61.1
78520;SHT31;67818;51.986;5.648;2023-09-19T16:04:13;20.3;61.0
78520;SHT31;67818;51.986;5.648;2023-09-19T16:06:43;20.3;61.6
78520;SHT31;67818;51.986;5.648;2023-09-19T16:09:13;20.3;61.7
78520;SHT31;67818;51.986;5.648;2023-09-19T16:11:42;20.3;61.9
78520;SHT31;67818;51.986;5.648;2023-09-19T16:14:11;20.3;63.0
78520;SHT31;67818;51.986;5.648;2023-09-19T16:16:40;20.2;63.2
78520;SHT31;67818;51.986;5.648;2023-09-19T16:19:08;20.2;62.5
78520;SHT31;67818;51.986;5.648;2023-09-19T16:21:38;20.2;63.3
78520;SHT31;67818;51.986;5.648;2023-09-19T16:24:10;20.1;62.8
78520;SHT31;67818;51.986;5.648;2023-09-19T16:26:39;20.1;63.2
78520;SHT31;67818;51.986;5.648;2023-09-19T16:29:08;20.1;63.3
78520;SHT31;67818;51.986;5.648;2023-09-19T16:31:37;20.1;62.9
78520;SHT31;67818;51.986;5.648;2023-09-19T16:34:07;20.0;63.3
78520;SHT31;67818;51.986;5.648;2023-09-19T16:36:36;20.0;62.8
78520;SHT31;67818;51.986;5.648;2023-09-19T16:39:05;20.0;62.7
78520;SHT31;67818;51.986;5.648;2023-09-19T16:41:34;20.0;63.0